sensor_id;sensor_type;location;lat;lon;timestamp;P1;durP1;ratioP1;P2;durP2;ratioP2
15616;SDS011;7908;51.688;7.130;2022-12-24T00:00:16;38.73;;;13.07;;
15616;SDS011;7908;51.688;7.130;2022-12-24T00:02:46;36.43;;;13.27;;
15616;SDS011;7908;51.688;7.130;2022-12-24T00:05:15;38.10;;;13.37;;
15616;SDS011;7908;51.688;7.130;2022-12-24T00:07:45;39.93;;;13.43;;
15616;SDS011;7908;51.688;7.130;2022-12-24T00:10:15;39.63;;;14.17;;
15616;SDS011;7908;51.688;7.130;2022-12-24T00:12:45;40.53;;;13.80;;
15616;SDS011;7908;51.688;7.130;2022-12-24T00:15:13;38.50;;;13.47;;
15616;SDS011;7908;51.688;7.130;2022-12-24T00:17:42;37.97;;;13.10;;
15616;SDS011;7908;51.688;7.130;2022-12-24T00:20:11;39.40;;;13.73;;
15616;SDS011;7908;51.688;7.130;2022-12-24T00:22:40;51.17;;;12.67;;
15616;SDS011;7908;51.688;7.130;2022-12-24T00:25:10;40.77;;;12.03;;
15616;SDS011;7908;51.688;7.130;2022-12-24T00:27:39;50.47;;;12.43;;
15616;SDS011;7908;51.688;7.130;2022-12-24T00:30:08;43.30;;;12.20;;
15616;SDS011;7908;51.688;7.130;2022-12-24T00:32:37;36.10;;;10.77;;
15616;SDS011;7908;51.688;7.130;2022-12-24T00:35:08;40.00;;;11.40;;
15616;SDS011;7908;51.688;7.130;2022-12-24T00:37:37;32.00;;;10.13;;
15616;SDS011;7908;51.688;7.130;2022-12-24T00:40:07;44.33;;;10.57;;
15616;SDS011;7908;51.688;7.130;2022-12-24T00:42:38;40.53;;;10.07;;
15616;SDS011;7908;51.688;7.130;2022-12-24T00:45:08;43.90;;;10.33;;
15616;SDS011;7908;51.688;7.130;2022-12-24T00:47:37;43.90;;;10.37;;
15616;SDS011;7908;51.688;7.130;2022-12-24T00:50:07;36.40;;;8.90;;
15616;SDS011;7908;51.688;7.130;2022-12-24T00:52:36;41.63;;;9.90;;
15616;SDS011;7908;51.688;7.130;2022-12-24T00:55:05;45.37;;;10.17;;
15616;SDS011;7908;51.688;7.130;2022-12-24T00:57:34;36.00;;;9.73;;
15616;SDS011;7908;51.688;7.130;2022-12-24T01:00:08;35.27;;;8.17;;
15616;SDS011;7908;51.688;7.130;2022-12-24T01:02:37;34.20;;;8.10;;
15616;SDS011;7908;51.688;7.130;2022-12-24T01:05:06;41.67;;;9.23;;
15616;SDS011;7908;51.688;7.130;2022-12-24T01:07:36;32.47;;;8.93;;
15616;SDS011;7908;51.688;7.130;2022-12-24T01:10:10;36.57;;;8.47;;
15616;SDS011;7908;51.688;7.130;2022-12-24T01:12:39;34.43;;;8.37;;
15616;SDS011;7908;51.688;7.130;2022-12-24T01:15:10;37.27;;;8.20;;
15616;SDS011;7908;51.688;7.130;2022-12-24T01:17:39;38.80;;;8.00;;
15616;SDS011;7908;51.688;7.130;2022-12-24T01:20:13;43.47;;;9.43;;
15616;SDS011;7908;51.688;7.130;2022-12-24T01:22:43;46.97;;;9.57;;
15616;SDS011;7908;51.688;7.130;2022-12-24T01:25:12;36.47;;;8.87;;
15616;SDS011;7908;51.688;7.130;2022-12-24T01:27:40;42.37;;;10.10;;
15616;SDS011;7908;51.688;7.130;2022-12-24T01:30:12;42.77;;;9.33;;
15616;SDS011;7908;51.688;7.130;2022-12-24T01:32:41;47.20;;;9.43;;
15616;SDS011;7908;51.688;7.130;2022-12-24T01:35:10;40.53;;;9.30;;
15616;SDS011;7908;51.688;7.130;2022-12-24T01:37:39;43.20;;;10.27;;
15616;SDS011;7908;51.688;7.130;2022-12-24T01:40:10;46.27;;;11.23;;
15616;SDS011;7908;51.688;7.130;2022-12-24T01:43:04;38.17;;;9.63;;
15616;SDS011;7908;51.688;7.130;2022-12-24T01:45:53;47.03;;;10.60;;
15616;SDS011;7908;51.688;7.130;2022-12-24T01:48:30;51.27;;;12.30;;
15616;SDS011;7908;51.688;7.130;2022-12-24T01:51:05;51.73;;;13.40;;
15616;SDS011;7908;51.688;7.130;2022-12-24T01:53:42;41.40;;;10.80;;
15616;SDS011;7908;51.688;7.130;2022-12-24T01:56:14;46.00;;;11.07;;
15616;SDS011;7908;51.688;7.130;2022-12-24T01:58:45;41.90;;;9.43;;
15616;SDS011;7908;51.688;7.130;2022-12-24T02:01:19;48.60;;;10.60;;
15616;SDS011;7908;51.688;7.130;2022-12-24T02:03:47;38.63;;;10.50;;
15616;SDS011;7908;51.688;7.130;2022-12-24T02:06:16;36.70;;;7.97;;
15616;SDS011;7908;51.688;7.130;2022-12-24T02:08:47;41.50;;;7.93;;
15616;SDS011;7908;51.688;7.130;2022-12-24T02:11:16;41.97;;;8.43;;
15616;SDS011;7908;51.688;7.130;2022-12-24T02:13:50;42.73;;;8.60;;
15616;SDS011;7908;51.688;7.130;2022-12-24T02:16:26;36.67;;;7.63;;
15616;SDS011;7908;51.688;7.130;2022-12-24T02:19:04;36.00;;;7.77;;
15616;SDS011;7908;51.688;7.130;2022-12-24T02:21:48;42.60;;;7.90;;
15616;SDS011;7908;51.688;7.130;2022-12-24T02:27:32;38.83;;;7.60;;
15616;SDS011;7908;51.688;7.130;2022-12-24T02:30:12;38.80;;;7.97;;
15616;SDS011;7908;51.688;7.130;2022-12-24T02:32:52;37.70;;;8.53;;
15616;SDS011;7908;51.688;7.130;2022-12-24T02:35:28;36.67;;;7.07;;
15616;SDS011;7908;51.688;7.130;2022-12-24T02:38:04;40.30;;;8.23;;
15616;SDS011;7908;51.688;7.130;2022-12-24T02:40:39;40.40;;;8.50;;
15616;SDS011;7908;51.688;7.130;2022-12-24T02:43:16;29.37;;;6.40;;
15616;SDS011;7908;51.688;7.130;2022-12-24T02:45:51;38.70;;;7.70;;
15616;SDS011;7908;51.688;7.130;2022-12-24T02:48:25;43.00;;;8.47;;
15616;SDS011;7908;51.688;7.130;2022-12-24T02:50:56;36.20;;;7.73;;
15616;SDS011;7908;51.688;7.130;2022-12-24T02:53:25;40.23;;;8.07;;
15616;SDS011;7908;51.688;7.130;2022-12-24T02:56:08;34.53;;;8.17;;
15616;SDS011;7908;51.688;7.130;2022-12-24T02:58:58;31.83;;;8.13;;
15616;SDS011;7908;51.688;7.130;2022-12-24T03:01:44;35.30;;;8.60;;
15616;SDS011;7908;51.688;7.130;2022-12-24T03:04:26;36.77;;;8.00;;
15616;SDS011;7908;51.688;7.130;2022-12-24T03:07:12;42.87;;;8.37;;
15616;SDS011;7908;51.688;7.130;2022-12-24T03:09:52;42.40;;;9.10;;
15616;SDS011;7908;51.688;7.130;2022-12-24T03:12:29;39.13;;;9.77;;
15616;SDS011;7908;51.688;7.130;2022-12-24T03:15:00;43.87;;;8.93;;
15616;SDS011;7908;51.688;7.130;2022-12-24T03:17:35;42.10;;;9.30;;
15616;SDS011;7908;51.688;7.130;2022-12-24T03:20:05;48.43;;;10.23;;
15616;SDS011;7908;51.688;7.130;2022-12-24T03:22:37;35.90;;;8.50;;
15616;SDS011;7908;51.688;7.130;2022-12-24T03:25:07;35.13;;;9.30;;
15616;SDS011;7908;51.688;7.130;2022-12-24T03:27:36;38.47;;;9.50;;
15616;SDS011;7908;51.688;7.130;2022-12-24T03:30:08;44.53;;;10.83;;
15616;SDS011;7908;51.688;7.130;2022-12-24T03:32:40;41.77;;;8.50;;
15616;SDS011;7908;51.688;7.130;2022-12-24T03:35:10;47.07;;;9.60;;
15616;SDS011;7908;51.688;7.130;2022-12-24T03:37:38;46.63;;;10.27;;
15616;SDS011;7908;51.688;7.130;2022-12-24T03:40:07;48.67;;;9.23;;
15616;SDS011;7908;51.688;7.130;2022-12-24T03:42:36;46.23;;;11.40;;
15616;SDS011;7908;51.688;7.130;2022-12-24T03:45:05;45.17;;;8.70;;
15616;SDS011;7908;51.688;7.130;2022-12-24T03:47:35;32.80;;;7.57;;
15616;SDS011;7908;51.688;7.130;2022-12-24T03:50:06;44.17;;;8.33;;
15616;SDS011;7908;51.688;7.130;2022-12-24T03:52:35;47.57;;;9.10;;
15616;SDS011;7908;51.688;7.130;2022-12-24T03:55:04;44.73;;;9.33;;
15616;SDS011;7908;51.688;7.130;2022-12-24T03:57:33;51.20;;;9.20;;
15616;SDS011;7908;51.688;7.130;2022-12-24T04:00:02;46.73;;;9.33;;
15616;SDS011;7908;51.688;7.130;2022-12-24T04:02:32;47.63;;;9.27;;
15616;SDS011;7908;51.688;7.130;2022-12-24T04:05:01;46.30;;;9.43;;
15616;SDS011;7908;51.688;7.130;2022-12-24T04:07:32;52.83;;;9.83;;
15616;SDS011;7908;51.688;7.130;2022-12-24T04:10:00;55.03;;;9.07;;
15616;SDS011;7908;51.688;7.130;2022-12-24T04:12:29;45.33;;;9.57;;
15616;SDS011;7908;51.688;7.130;2022-12-24T04:14:58;43.43;;;8.30;;
15616;SDS011;7908;51.688;7.130;2022-12-24T04:17:26;45.40;;;9.30;;
15616;SDS011;7908;51.688;7.130;2022-12-24T04:19:54;40.70;;;8.87;;
15616;SDS011;7908;51.688;7.130;2022-12-24T04:22:23;44.87;;;8.60;;
15616;SDS011;7908;51.688;7.130;2022-12-24T04:24:53;45.07;;;8.43;;
15616;SDS011;7908;51.688;7.130;2022-12-24T04:27:22;42.73;;;9.03;;
15616;SDS011;7908;51.688;7.130;2022-12-24T04:29:56;42.80;;;7.93;;
15616;SDS011;7908;51.688;7.130;2022-12-24T04:32:24;42.67;;;8.80;;
15616;SDS011;7908;51.688;7.130;2022-12-24T04:34:53;48.83;;;8.83;;
15616;SDS011;7908;51.688;7.130;2022-12-24T04:37:21;38.13;;;7.77;;
15616;SDS011;7908;51.688;7.130;2022-12-24T04:39:52;41.20;;;7.93;;
15616;SDS011;7908;51.688;7.130;2022-12-24T04:42:21;41.97;;;7.13;;
15616;SDS011;7908;51.688;7.130;2022-12-24T04:44:50;35.97;;;7.10;;
15616;SDS011;7908;51.688;7.130;2022-12-24T04:47:19;36.00;;;7.93;;
15616;SDS011;7908;51.688;7.130;2022-12-24T04:49:47;44.07;;;7.23;;
15616;SDS011;7908;51.688;7.130;2022-12-24T04:52:16;42.87;;;7.10;;
15616;SDS011;7908;51.688;7.130;2022-12-24T04:54:45;40.57;;;7.77;;
15616;SDS011;7908;51.688;7.130;2022-12-24T04:57:14;53.47;;;7.30;;
15616;SDS011;7908;51.688;7.130;2022-12-24T04:59:43;41.77;;;7.20;;
15616;SDS011;7908;51.688;7.130;2022-12-24T05:02:11;46.30;;;7.37;;
15616;SDS011;7908;51.688;7.130;2022-12-24T05:04:40;42.27;;;8.03;;
15616;SDS011;7908;51.688;7.130;2022-12-24T05:07:08;52.30;;;7.30;;
15616;SDS011;7908;51.688;7.130;2022-12-24T05:09:37;39.30;;;7.63;;
15616;SDS011;7908;51.688;7.130;2022-12-24T05:12:05;38.80;;;6.87;;
15616;SDS011;7908;51.688;7.130;2022-12-24T05:14:36;37.67;;;6.93;;
15616;SDS011;7908;51.688;7.130;2022-12-24T05:17:05;41.67;;;7.23;;
15616;SDS011;7908;51.688;7.130;2022-12-24T05:19:34;47.30;;;7.90;;
15616;SDS011;7908;51.688;7.130;2022-12-24T05:22:02;45.70;;;8.17;;
15616;SDS011;7908;51.688;7.130;2022-12-24T05:24:48;50.03;;;8.33;;
15616;SDS011;7908;51.688;7.130;2022-12-24T05:27:34;45.07;;;8.33;;
15616;SDS011;7908;51.688;7.130;2022-12-24T05:30:05;40.00;;;8.00;;
15616;SDS011;7908;51.688;7.130;2022-12-24T05:32:34;42.10;;;8.50;;
15616;SDS011;7908;51.688;7.130;2022-12-24T05:35:03;36.37;;;7.70;;
15616;SDS011;7908;51.688;7.130;2022-12-24T05:37:32;42.97;;;8.80;;
15616;SDS011;7908;51.688;7.130;2022-12-24T05:40:00;35.10;;;7.60;;
15616;SDS011;7908;51.688;7.130;2022-12-24T05:42:29;36.57;;;8.20;;
15616;SDS011;7908;51.688;7.130;2022-12-24T05:44:57;42.30;;;9.17;;
15616;SDS011;7908;51.688;7.130;2022-12-24T05:47:27;40.17;;;8.97;;
15616;SDS011;7908;51.688;7.130;2022-12-24T05:49:57;38.57;;;8.83;;
15616;SDS011;7908;51.688;7.130;2022-12-24T05:52:25;33.90;;;7.50;;
15616;SDS011;7908;51.688;7.130;2022-12-24T05:54:53;30.40;;;8.77;;
15616;SDS011;7908;51.688;7.130;2022-12-24T05:57:22;36.60;;;8.20;;
15616;SDS011;7908;51.688;7.130;2022-12-24T05:59:50;34.70;;;8.67;;
15616;SDS011;7908;51.688;7.130;2022-12-24T06:02:19;33.47;;;8.80;;
15616;SDS011;7908;51.688;7.130;2022-12-24T06:04:49;34.00;;;8.40;;
15616;SDS011;7908;51.688;7.130;2022-12-24T06:07:18;43.60;;;8.53;;
15616;SDS011;7908;51.688;7.130;2022-12-24T06:09:46;33.23;;;7.63;;
15616;SDS011;7908;51.688;7.130;2022-12-24T06:12:15;39.43;;;8.47;;
15616;SDS011;7908;51.688;7.130;2022-12-24T06:14:43;38.50;;;8.67;;
15616;SDS011;7908;51.688;7.130;2022-12-24T06:17:11;41.27;;;8.50;;
15616;SDS011;7908;51.688;7.130;2022-12-24T06:19:40;26.20;;;7.03;;
15616;SDS011;7908;51.688;7.130;2022-12-24T06:22:10;35.43;;;7.97;;
15616;SDS011;7908;51.688;7.130;2022-12-24T06:24:38;33.63;;;7.67;;
15616;SDS011;7908;51.688;7.130;2022-12-24T06:27:07;33.33;;;7.83;;
15616;SDS011;7908;51.688;7.130;2022-12-24T06:29:35;35.23;;;8.17;;
15616;SDS011;7908;51.688;7.130;2022-12-24T06:32:04;32.63;;;8.70;;
15616;SDS011;7908;51.688;7.130;2022-12-24T06:34:33;32.27;;;7.73;;
15616;SDS011;7908;51.688;7.130;2022-12-24T06:37:01;37.33;;;8.67;;
15616;SDS011;7908;51.688;7.130;2022-12-24T06:39:31;35.47;;;8.33;;
15616;SDS011;7908;51.688;7.130;2022-12-24T06:42:00;34.10;;;8.53;;
15616;SDS011;7908;51.688;7.130;2022-12-24T06:44:28;28.70;;;8.20;;
15616;SDS011;7908;51.688;7.130;2022-12-24T06:46:56;36.00;;;8.90;;
15616;SDS011;7908;51.688;7.130;2022-12-24T06:49:25;40.20;;;8.17;;
15616;SDS011;7908;51.688;7.130;2022-12-24T06:51:54;39.67;;;7.97;;
15616;SDS011;7908;51.688;7.130;2022-12-24T06:54:22;32.70;;;7.53;;
15616;SDS011;7908;51.688;7.130;2022-12-24T06:56:52;35.27;;;8.27;;
15616;SDS011;7908;51.688;7.130;2022-12-24T06:59:23;32.90;;;8.40;;
15616;SDS011;7908;51.688;7.130;2022-12-24T07:01:52;34.03;;;7.50;;
15616;SDS011;7908;51.688;7.130;2022-12-24T07:04:21;39.30;;;8.10;;
15616;SDS011;7908;51.688;7.130;2022-12-24T07:06:49;44.97;;;9.03;;
15616;SDS011;7908;51.688;7.130;2022-12-24T07:09:18;30.50;;;8.13;;
15616;SDS011;7908;51.688;7.130;2022-12-24T07:11:46;35.57;;;8.17;;
15616;SDS011;7908;51.688;7.130;2022-12-24T07:14:16;42.93;;;9.23;;
15616;SDS011;7908;51.688;7.130;2022-12-24T07:16:45;38.43;;;8.47;;
15616;SDS011;7908;51.688;7.130;2022-12-24T07:19:20;32.73;;;9.77;;
15616;SDS011;7908;51.688;7.130;2022-12-24T07:21:49;41.37;;;10.33;;
15616;SDS011;7908;51.688;7.130;2022-12-24T07:24:17;43.67;;;13.63;;
15616;SDS011;7908;51.688;7.130;2022-12-24T07:26:48;36.37;;;11.43;;
15616;SDS011;7908;51.688;7.130;2022-12-24T07:29:17;47.13;;;9.07;;
15616;SDS011;7908;51.688;7.130;2022-12-24T07:31:46;32.10;;;9.10;;
15616;SDS011;7908;51.688;7.130;2022-12-24T07:34:15;45.10;;;10.00;;
15616;SDS011;7908;51.688;7.130;2022-12-24T07:36:43;38.80;;;9.87;;
15616;SDS011;7908;51.688;7.130;2022-12-24T07:39:12;47.33;;;10.40;;
15616;SDS011;7908;51.688;7.130;2022-12-24T07:41:41;39.90;;;9.73;;
15616;SDS011;7908;51.688;7.130;2022-12-24T07:44:10;45.03;;;10.90;;
15616;SDS011;7908;51.688;7.130;2022-12-24T07:46:40;32.80;;;9.67;;
15616;SDS011;7908;51.688;7.130;2022-12-24T07:49:09;38.30;;;9.40;;
15616;SDS011;7908;51.688;7.130;2022-12-24T07:51:38;35.03;;;9.73;;
15616;SDS011;7908;51.688;7.130;2022-12-24T07:54:07;37.67;;;8.97;;
15616;SDS011;7908;51.688;7.130;2022-12-24T07:56:35;41.40;;;9.23;;
15616;SDS011;7908;51.688;7.130;2022-12-24T07:59:03;38.77;;;11.03;;
15616;SDS011;7908;51.688;7.130;2022-12-24T08:01:32;41.17;;;12.73;;
15616;SDS011;7908;51.688;7.130;2022-12-24T08:04:02;42.37;;;13.10;;
15616;SDS011;7908;51.688;7.130;2022-12-24T08:06:31;51.90;;;16.33;;
15616;SDS011;7908;51.688;7.130;2022-12-24T08:09:00;42.77;;;12.67;;
15616;SDS011;7908;51.688;7.130;2022-12-24T08:11:29;28.20;;;9.77;;
15616;SDS011;7908;51.688;7.130;2022-12-24T08:13:58;47.20;;;10.47;;
15616;SDS011;7908;51.688;7.130;2022-12-24T08:16:26;43.90;;;9.87;;
15616;SDS011;7908;51.688;7.130;2022-12-24T08:18:55;36.53;;;9.73;;
15616;SDS011;7908;51.688;7.130;2022-12-24T08:21:25;41.80;;;10.90;;
15616;SDS011;7908;51.688;7.130;2022-12-24T08:23:54;30.87;;;9.83;;
15616;SDS011;7908;51.688;7.130;2022-12-24T08:26:22;35.23;;;8.97;;
15616;SDS011;7908;51.688;7.130;2022-12-24T08:28:51;39.07;;;9.43;;
15616;SDS011;7908;51.688;7.130;2022-12-24T08:31:19;39.80;;;9.97;;
15616;SDS011;7908;51.688;7.130;2022-12-24T08:33:48;35.97;;;9.03;;
15616;SDS011;7908;51.688;7.130;2022-12-24T08:36:17;41.67;;;10.53;;
15616;SDS011;7908;51.688;7.130;2022-12-24T08:38:47;49.33;;;10.17;;
15616;SDS011;7908;51.688;7.130;2022-12-24T08:41:15;40.17;;;10.73;;
15616;SDS011;7908;51.688;7.130;2022-12-24T08:43:44;36.90;;;9.93;;
15616;SDS011;7908;51.688;7.130;2022-12-24T08:46:13;35.70;;;9.47;;
15616;SDS011;7908;51.688;7.130;2022-12-24T08:48:41;32.70;;;7.63;;
15616;SDS011;7908;51.688;7.130;2022-12-24T08:51:10;44.97;;;8.83;;
15616;SDS011;7908;51.688;7.130;2022-12-24T08:53:39;31.53;;;8.20;;
15616;SDS011;7908;51.688;7.130;2022-12-24T08:56:09;34.07;;;8.13;;
15616;SDS011;7908;51.688;7.130;2022-12-24T08:58:39;40.37;;;8.33;;
15616;SDS011;7908;51.688;7.130;2022-12-24T09:01:11;29.73;;;7.40;;
15616;SDS011;7908;51.688;7.130;2022-12-24T09:03:42;38.77;;;8.07;;
15616;SDS011;7908;51.688;7.130;2022-12-24T09:06:14;48.00;;;8.37;;
15616;SDS011;7908;51.688;7.130;2022-12-24T09:08:44;32.97;;;8.43;;
15616;SDS011;7908;51.688;7.130;2022-12-24T09:11:15;34.03;;;8.73;;
15616;SDS011;7908;51.688;7.130;2022-12-24T09:13:45;40.03;;;8.97;;
15616;SDS011;7908;51.688;7.130;2022-12-24T09:16:14;34.57;;;8.40;;
15616;SDS011;7908;51.688;7.130;2022-12-24T09:18:44;35.63;;;7.83;;
15616;SDS011;7908;51.688;7.130;2022-12-24T09:21:14;42.30;;;8.20;;
15616;SDS011;7908;51.688;7.130;2022-12-24T09:23:44;44.57;;;9.77;;
15616;SDS011;7908;51.688;7.130;2022-12-24T09:26:17;32.77;;;7.00;;
15616;SDS011;7908;51.688;7.130;2022-12-24T09:28:47;35.97;;;7.27;;
15616;SDS011;7908;51.688;7.130;2022-12-24T09:31:17;36.97;;;7.33;;
15616;SDS011;7908;51.688;7.130;2022-12-24T09:33:47;35.23;;;7.53;;
15616;SDS011;7908;51.688;7.130;2022-12-24T09:36:17;33.73;;;6.57;;
15616;SDS011;7908;51.688;7.130;2022-12-24T09:38:47;38.00;;;7.30;;
15616;SDS011;7908;51.688;7.130;2022-12-24T09:41:23;39.97;;;7.50;;
15616;SDS011;7908;51.688;7.130;2022-12-24T09:44:02;35.07;;;6.97;;
15616;SDS011;7908;51.688;7.130;2022-12-24T09:46:38;32.97;;;7.03;;
15616;SDS011;7908;51.688;7.130;2022-12-24T09:49:11;32.40;;;6.67;;
15616;SDS011;7908;51.688;7.130;2022-12-24T09:51:44;32.50;;;7.20;;
15616;SDS011;7908;51.688;7.130;2022-12-24T09:54:19;30.23;;;7.37;;
15616;SDS011;7908;51.688;7.130;2022-12-24T09:56:52;32.93;;;8.20;;
15616;SDS011;7908;51.688;7.130;2022-12-24T09:59:25;32.50;;;8.10;;
15616;SDS011;7908;51.688;7.130;2022-12-24T10:01:59;43.80;;;7.70;;
15616;SDS011;7908;51.688;7.130;2022-12-24T10:04:28;40.13;;;8.40;;
15616;SDS011;7908;51.688;7.130;2022-12-24T10:07:00;36.60;;;7.57;;
15616;SDS011;7908;51.688;7.130;2022-12-24T10:09:45;37.40;;;7.27;;
15616;SDS011;7908;51.688;7.130;2022-12-24T10:12:24;35.97;;;8.03;;
15616;SDS011;7908;51.688;7.130;2022-12-24T10:15:02;36.83;;;7.53;;
15616;SDS011;7908;51.688;7.130;2022-12-24T10:17:45;36.37;;;7.70;;
15616;SDS011;7908;51.688;7.130;2022-12-24T10:20:24;32.13;;;8.27;;
15616;SDS011;7908;51.688;7.130;2022-12-24T10:23:05;29.73;;;6.67;;
15616;SDS011;7908;51.688;7.130;2022-12-24T10:25:40;41.70;;;8.17;;
15616;SDS011;7908;51.688;7.130;2022-12-24T10:28:17;40.83;;;7.13;;
15616;SDS011;7908;51.688;7.130;2022-12-24T10:30:53;38.80;;;7.90;;
15616;SDS011;7908;51.688;7.130;2022-12-24T10:33:28;44.00;;;7.97;;
15616;SDS011;7908;51.688;7.130;2022-12-24T10:36:04;33.40;;;7.13;;
15616;SDS011;7908;51.688;7.130;2022-12-24T10:38:38;40.80;;;7.60;;
15616;SDS011;7908;51.688;7.130;2022-12-24T10:41:06;33.13;;;6.80;;
15616;SDS011;7908;51.688;7.130;2022-12-24T10:43:37;36.20;;;7.03;;
15616;SDS011;7908;51.688;7.130;2022-12-24T10:46:13;32.07;;;6.13;;
15616;SDS011;7908;51.688;7.130;2022-12-24T10:48:47;35.13;;;6.60;;
15616;SDS011;7908;51.688;7.130;2022-12-24T10:51:28;29.80;;;6.63;;
15616;SDS011;7908;51.688;7.130;2022-12-24T10:54:05;27.97;;;6.17;;
15616;SDS011;7908;51.688;7.130;2022-12-24T10:56:39;33.70;;;7.40;;
15616;SDS011;7908;51.688;7.130;2022-12-24T10:59:22;28.60;;;6.30;;
15616;SDS011;7908;51.688;7.130;2022-12-24T11:01:54;39.97;;;10.50;;
15616;SDS011;7908;51.688;7.130;2022-12-24T11:04:25;40.20;;;11.47;;
15616;SDS011;7908;51.688;7.130;2022-12-24T11:06:59;28.87;;;6.70;;
15616;SDS011;7908;51.688;7.130;2022-12-24T11:09:30;33.97;;;8.10;;
15616;SDS011;7908;51.688;7.130;2022-12-24T11:12:03;34.20;;;6.93;;
15616;SDS011;7908;51.688;7.130;2022-12-24T11:14:42;31.50;;;6.73;;
15616;SDS011;7908;51.688;7.130;2022-12-24T11:17:17;28.70;;;5.87;;
15616;SDS011;7908;51.688;7.130;2022-12-24T11:19:48;29.23;;;7.23;;
15616;SDS011;7908;51.688;7.130;2022-12-24T11:22:19;25.80;;;7.17;;
15616;SDS011;7908;51.688;7.130;2022-12-24T11:24:58;30.27;;;5.67;;
15616;SDS011;7908;51.688;7.130;2022-12-24T11:27:31;28.37;;;6.47;;
15616;SDS011;7908;51.688;7.130;2022-12-24T11:30:18;25.17;;;5.63;;
15616;SDS011;7908;51.688;7.130;2022-12-24T11:33:19;28.30;;;6.40;;
15616;SDS011;7908;51.688;7.130;2022-12-24T11:35:50;35.47;;;7.40;;
15616;SDS011;7908;51.688;7.130;2022-12-24T11:38:29;29.17;;;6.90;;
15616;SDS011;7908;51.688;7.130;2022-12-24T11:41:01;38.90;;;7.70;;
15616;SDS011;7908;51.688;7.130;2022-12-24T11:43:39;35.40;;;8.23;;
15616;SDS011;7908;51.688;7.130;2022-12-24T11:46:33;30.13;;;6.67;;
15616;SDS011;7908;51.688;7.130;2022-12-24T11:49:05;26.63;;;7.33;;
15616;SDS011;7908;51.688;7.130;2022-12-24T11:54:49;36.33;;;6.60;;
15616;SDS011;7908;51.688;7.130;2022-12-24T11:57:52;36.43;;;6.70;;
15616;SDS011;7908;51.688;7.130;2022-12-24T12:00:28;31.70;;;6.03;;
15616;SDS011;7908;51.688;7.130;2022-12-24T12:02:58;34.10;;;7.90;;
15616;SDS011;7908;51.688;7.130;2022-12-24T12:05:31;29.90;;;7.17;;
15616;SDS011;7908;51.688;7.130;2022-12-24T12:08:04;31.60;;;6.67;;
15616;SDS011;7908;51.688;7.130;2022-12-24T12:10:39;29.30;;;6.97;;
15616;SDS011;7908;51.688;7.130;2022-12-24T12:13:11;31.37;;;7.43;;
15616;SDS011;7908;51.688;7.130;2022-12-24T12:15:43;26.23;;;7.47;;
15616;SDS011;7908;51.688;7.130;2022-12-24T12:18:19;27.77;;;7.60;;
15616;SDS011;7908;51.688;7.130;2022-12-24T12:20:53;32.13;;;6.90;;
15616;SDS011;7908;51.688;7.130;2022-12-24T12:23:28;30.33;;;7.40;;
15616;SDS011;7908;51.688;7.130;2022-12-24T12:26:00;38.73;;;8.27;;
15616;SDS011;7908;51.688;7.130;2022-12-24T12:28:39;34.13;;;7.73;;
15616;SDS011;7908;51.688;7.130;2022-12-24T12:31:14;35.33;;;7.87;;
15616;SDS011;7908;51.688;7.130;2022-12-24T12:33:51;25.17;;;7.00;;
15616;SDS011;7908;51.688;7.130;2022-12-24T12:36:25;33.83;;;7.03;;
15616;SDS011;7908;51.688;7.130;2022-12-24T12:38:58;31.33;;;7.10;;
15616;SDS011;7908;51.688;7.130;2022-12-24T12:41:34;31.17;;;7.83;;
15616;SDS011;7908;51.688;7.130;2022-12-24T12:47:37;33.13;;;8.17;;
15616;SDS011;7908;51.688;7.130;2022-12-24T12:50:21;30.90;;;8.60;;
15616;SDS011;7908;51.688;7.130;2022-12-24T12:53:02;34.87;;;8.87;;
15616;SDS011;7908;51.688;7.130;2022-12-24T12:55:46;28.37;;;8.03;;
15616;SDS011;7908;51.688;7.130;2022-12-24T12:58:22;28.93;;;9.20;;
15616;SDS011;7908;51.688;7.130;2022-12-24T13:01:01;29.20;;;8.60;;
15616;SDS011;7908;51.688;7.130;2022-12-24T13:03:45;34.60;;;8.47;;
15616;SDS011;7908;51.688;7.130;2022-12-24T13:06:40;35.97;;;8.60;;
15616;SDS011;7908;51.688;7.130;2022-12-24T13:09:36;36.13;;;8.77;;
15616;SDS011;7908;51.688;7.130;2022-12-24T13:15:24;38.63;;;9.27;;
15616;SDS011;7908;51.688;7.130;2022-12-24T13:20:58;26.97;;;8.10;;
15616;SDS011;7908;51.688;7.130;2022-12-24T13:23:31;31.30;;;7.70;;
15616;SDS011;7908;51.688;7.130;2022-12-24T13:26:08;46.37;;;9.57;;
15616;SDS011;7908;51.688;7.130;2022-12-24T13:28:40;34.87;;;8.43;;
15616;SDS011;7908;51.688;7.130;2022-12-24T13:31:23;31.03;;;7.87;;
15616;SDS011;7908;51.688;7.130;2022-12-24T13:33:57;27.57;;;8.00;;
15616;SDS011;7908;51.688;7.130;2022-12-24T13:42:49;30.57;;;8.23;;
15616;SDS011;7908;51.688;7.130;2022-12-24T13:48:20;27.57;;;7.60;;
15616;SDS011;7908;51.688;7.130;2022-12-24T13:50:57;24.07;;;7.80;;
15616;SDS011;7908;51.688;7.130;2022-12-24T13:53:31;23.40;;;7.07;;
15616;SDS011;7908;51.688;7.130;2022-12-24T13:56:07;26.30;;;7.20;;
15616;SDS011;7908;51.688;7.130;2022-12-24T13:58:54;23.87;;;7.03;;
15616;SDS011;7908;51.688;7.130;2022-12-24T14:01:36;28.97;;;7.20;;
15616;SDS011;7908;51.688;7.130;2022-12-24T14:04:24;23.83;;;6.93;;
15616;SDS011;7908;51.688;7.130;2022-12-24T14:06:56;30.23;;;7.33;;
15616;SDS011;7908;51.688;7.130;2022-12-24T14:09:28;25.93;;;7.97;;
15616;SDS011;7908;51.688;7.130;2022-12-24T14:15:00;21.13;;;7.00;;
15616;SDS011;7908;51.688;7.130;2022-12-24T14:18:08;27.47;;;8.50;;
15616;SDS011;7908;51.688;7.130;2022-12-24T14:20:37;25.40;;;8.57;;
15616;SDS011;7908;51.688;7.130;2022-12-24T14:23:06;25.17;;;7.97;;
15616;SDS011;7908;51.688;7.130;2022-12-24T14:25:46;26.63;;;7.70;;
15616;SDS011;7908;51.688;7.130;2022-12-24T14:28:20;24.67;;;8.10;;
15616;SDS011;7908;51.688;7.130;2022-12-24T14:31:03;23.67;;;8.37;;
15616;SDS011;7908;51.688;7.130;2022-12-24T14:33:33;24.67;;;8.40;;
15616;SDS011;7908;51.688;7.130;2022-12-24T14:36:03;25.03;;;9.23;;
15616;SDS011;7908;51.688;7.130;2022-12-24T14:38:36;26.97;;;8.40;;
15616;SDS011;7908;51.688;7.130;2022-12-24T14:41:14;24.47;;;7.40;;
15616;SDS011;7908;51.688;7.130;2022-12-24T14:43:57;24.87;;;8.43;;
15616;SDS011;7908;51.688;7.130;2022-12-24T14:46:37;28.03;;;8.63;;
15616;SDS011;7908;51.688;7.130;2022-12-24T14:49:16;24.57;;;8.30;;
15616;SDS011;7908;51.688;7.130;2022-12-24T14:51:59;20.77;;;6.93;;
15616;SDS011;7908;51.688;7.130;2022-12-24T14:54:54;24.53;;;8.10;;
15616;SDS011;7908;51.688;7.130;2022-12-24T14:57:24;26.80;;;7.80;;
15616;SDS011;7908;51.688;7.130;2022-12-24T14:59:55;25.33;;;8.73;;
15616;SDS011;7908;51.688;7.130;2022-12-24T15:02:34;25.03;;;9.00;;
15616;SDS011;7908;51.688;7.130;2022-12-24T15:05:09;22.57;;;8.23;;
15616;SDS011;7908;51.688;7.130;2022-12-24T15:07:41;19.80;;;8.40;;
15616;SDS011;7908;51.688;7.130;2022-12-24T15:10:21;23.60;;;7.83;;
15616;SDS011;7908;51.688;7.130;2022-12-24T15:12:56;29.13;;;9.60;;
15616;SDS011;7908;51.688;7.130;2022-12-24T15:15:29;24.17;;;8.90;;
15616;SDS011;7908;51.688;7.130;2022-12-24T15:18:00;25.37;;;9.67;;
15616;SDS011;7908;51.688;7.130;2022-12-24T15:20:41;22.03;;;9.70;;
15616;SDS011;7908;51.688;7.130;2022-12-24T15:23:16;22.57;;;9.63;;
15616;SDS011;7908;51.688;7.130;2022-12-24T15:25:46;25.33;;;10.33;;
15616;SDS011;7908;51.688;7.130;2022-12-24T15:28:16;25.00;;;12.00;;
15616;SDS011;7908;51.688;7.130;2022-12-24T15:30:50;29.83;;;12.47;;
15616;SDS011;7908;51.688;7.130;2022-12-24T15:33:35;27.00;;;12.37;;
15616;SDS011;7908;51.688;7.130;2022-12-24T15:36:04;28.30;;;12.83;;
15616;SDS011;7908;51.688;7.130;2022-12-24T15:38:36;24.17;;;11.97;;
15616;SDS011;7908;51.688;7.130;2022-12-24T15:41:07;28.20;;;12.73;;
15616;SDS011;7908;51.688;7.130;2022-12-24T15:43:43;23.77;;;12.40;;
15616;SDS011;7908;51.688;7.130;2022-12-24T15:46:19;23.93;;;12.03;;